Time;durP1;ratioP1;P1;durP2;ratioP2;P2;SDS_P1;SDS_P2;PMS_P1;PMS_P2;Temp;Humidity;BMP_temperature;BMP_pressure;BME280_temperature;BME280_humidity;BME280_pressure;Samples;Min_cycle;Max_cycle;Signal;HPM_P1;HPM_P2
2023/04/21 00:00:34;;;;;;;1.98;1.50;;;;;;;15.64;45.20;99521.63;4495028;31;34947;-64
2023/04/21 00:03:02;;;;;;;2.33;1.55;;;;;;;15.73;44.87;99519.88;4492901;31;33904;-62
2023/04/21 00:05:29;;;;;;;10.88;2.55;;;;;;;15.38;45.80;99514.25;4487877;31;34226;-62
2023/04/21 00:07:57;;;;;;;3.10;2.60;;;;;;;15.59;45.27;99510.44;4497899;31;32768;-62
2023/04/21 00:10:26;;;;;;;3.75;1.73;;;;;;;15.59;45.58;99515.81;4486741;31;33802;-64
2023/04/21 00:12:53;;;;;;;3.45;2.12;;;;;;;15.60;45.30;99510.28;4482925;32;34639;-62
2023/04/21 00:15:20;;;;;;;5.57;2.40;;;;;;;15.31;45.82;99506.91;4494496;31;33299;-65
2023/04/21 00:17:48;;;;;;;3.10;2.15;;;;;;;14.93;46.48;99502.56;4491446;31;33871;-62
2023/04/21 00:20:15;;;;;;;1.95;1.08;;;;;;;14.60;47.38;99505.66;4492116;31;33895;-63
2023/04/21 00:22:43;;;;;;;3.58;1.95;;;;;;;15.09;46.26;99505.50;4489577;31;34887;-64
2023/04/21 00:25:11;;;;;;;5.25;2.50;;;;;;;15.17;45.59;99510.12;4482880;31;34263;-62
2023/04/21 00:27:38;;;;;;;1.27;0.95;;;;;;;14.89;46.00;99504.72;4494651;31;33668;-62
2023/04/21 00:30:06;;;;;;;2.40;2.15;;;;;;;14.80;46.79;99498.37;4493023;31;34161;-61
2023/04/21 00:32:36;;;;;;;0.95;0.88;;;;;;;14.29;47.47;99501.47;4489677;31;32659;-62
2023/04/21 00:35:04;;;;;;;2.92;1.60;;;;;;;14.80;45.82;99503.78;4488087;31;33454;-61
2023/04/21 00:37:32;;;;;;;3.58;1.35;;;;;;;14.97;45.52;99501.28;4489519;31;33440;-63
2023/04/21 00:40:00;;;;;;;6.35;1.55;;;;;;;14.98;46.21;99497.59;4493649;31;32864;-62
2023/04/21 00:42:28;;;;;;;3.60;1.80;;;;;;;15.10;45.21;99502.62;4485761;31;34209;-62
2023/04/21 00:44:55;;;;;;;9.30;2.60;;;;;;;15.30;44.64;99505.22;4490017;31;31881;-63
2023/04/21 00:47:24;;;;;;;4.03;1.20;;;;;;;14.88;45.29;99503.00;4488984;31;33886;-62
2023/04/21 00:49:51;;;;;;;1.65;1.25;;;;;;;15.24;44.64;99498.56;4490213;31;33820;-61
2023/04/21 00:52:19;;;;;;;1.87;1.23;;;;;;;15.24;44.51;99492.34;4496804;31;33630;-62
2023/04/21 00:54:47;;;;;;;2.75;1.55;;;;;;;15.35;44.31;99497.53;4489582;31;34252;-60
2023/04/21 00:57:15;;;;;;;5.85;2.10;;;;;;;14.95;45.52;99490.63;4493727;31;33889;-60
2023/04/21 00:59:43;;;;;;;3.22;1.50;;;;;;;15.30;44.85;99494.44;4489821;31;34057;-61
2023/04/21 01:02:10;;;;;;;1.90;1.42;;;;;;;15.12;45.07;99492.56;4494466;31;33789;-61
2023/04/21 01:04:39;;;;;;;1.52;1.12;;;;;;;14.84;44.53;99486.31;4492193;31;33293;-61
2023/04/21 01:07:07;;;;;;;1.98;0.98;;;;;;;14.88;44.33;99481.47;4493758;31;33617;-61
2023/04/21 01:09:35;;;;;;;1.25;1.02;;;;;;;15.09;44.52;99490.16;4496682;31;34021;-62
2023/04/21 01:12:08;;;;;;;2.53;1.33;;;;;;;14.80;45.13;99486.72;4499018;31;34026;-61
2023/04/21 01:14:37;;;;;;;3.22;1.67;;;;;;;14.46;46.03;99484.56;4490557;31;33328;-61
2023/04/21 01:17:06;;;;;;;2.80;1.62;;;;;;;14.71;45.64;99490.34;4484874;31;33843;-62
2023/04/21 01:19:40;;;;;;;4.37;1.35;;;;;;;14.94;44.41;99488.94;4483600;31;34115;-62
2023/04/21 01:22:12;;;;;;;9.70;1.98;;;;;;;15.33;43.72;99494.97;4495088;31;34930;-61
2023/04/21 01:24:41;;;;;;;3.78;1.73;;;;;;;15.23;44.14;99487.97;4487900;31;33099;-61
2023/04/21 01:27:13;;;;;;;3.50;2.22;;;;;;;15.36;44.00;99486.59;4496878;31;32511;-63
2023/04/21 01:29:42;;;;;;;1.67;1.27;;;;;;;14.81;45.22;99483.06;4492617;31;32717;-61
2023/04/21 01:32:13;;;;;;;1.55;0.95;;;;;;;15.26;43.06;99483.09;4491872;31;34080;-62
2023/04/21 01:34:41;;;;;;;2.75;1.17;;;;;;;15.16;43.20;99484.19;4486259;31;31840;-62
2023/04/21 01:37:11;;;;;;;2.42;1.65;;;;;;;15.45;42.67;99490.22;4497234;31;33643;-63
2023/04/21 01:39:45;;;;;;;2.72;1.83;;;;;;;15.40;42.57;99484.44;4483792;31;34280;-62
2023/04/21 01:42:13;;;;;;;1.98;1.05;;;;;;;15.61;42.04;99478.75;4483502;31;34046;-65
2023/04/21 01:44:41;;;;;;;4.05;1.55;;;;;;;15.54;42.76;99478.53;4487046;31;32109;-62
2023/04/21 01:47:10;;;;;;;5.47;2.30;;;;;;;15.23;43.59;99479.88;4495663;31;33972;-65
2023/04/21 01:49:39;;;;;;;5.75;1.65;;;;;;;15.60;42.24;99475.22;4490271;31;35825;-62
2023/04/21 01:52:06;;;;;;;3.40;1.50;;;;;;;15.59;42.60;99473.50;4495439;31;33681;-62
2023/04/21 01:54:34;;;;;;;2.85;1.60;;;;;;;15.48;42.56;99478.31;4487470;31;33199;-62
2023/04/21 01:57:02;;;;;;;6.82;2.25;;;;;;;15.28;43.03;99478.44;4486191;31;33873;-62
2023/04/21 01:59:29;;;;;;;3.20;2.20;;;;;;;15.48;42.68;99481.00;4491448;31;34010;-63
2023/04/21 02:01:57;;;;;;;2.03;1.42;;;;;;;15.26;42.91;99485.81;4490262;31;35181;-62
2023/04/21 02:04:25;;;;;;;2.55;1.65;;;;;;;15.41;42.43;99487.97;4493902;31;34567;-64
2023/04/21 02:06:52;;;;;;;4.18;2.00;;;;;;;15.03;43.48;99482.66;4486102;31;33892;-62
2023/04/21 02:09:20;;;;;;;3.37;2.03;;;;;;;15.22;42.45;99487.12;4488337;31;34031;-62
2023/04/21 02:11:50;;;;;;;3.75;2.28;;;;;;;14.62;43.80;99484.81;4494499;31;33861;-63
2023/04/21 02:14:18;;;;;;;3.67;2.08;;;;;;;14.71;43.50;99484.94;4496266;31;33489;-62
2023/04/21 02:16:45;;;;;;;0.88;0.82;;;;;;;14.87;42.95;99485.16;4493374;31;33453;-61
2023/04/21 02:19:13;;;;;;;0.98;0.88;;;;;;;14.63;43.78;99483.81;4485344;31;34188;-63
2023/04/21 02:21:40;;;;;;;2.10;1.52;;;;;;;14.52;44.03;99481.31;4490234;31;34893;-61
2023/04/21 02:24:08;;;;;;;3.37;1.62;;;;;;;14.44;44.18;99484.72;4480579;31;33543;-62
2023/04/21 02:26:36;;;;;;;12.32;2.20;;;;;;;14.58;43.75;99483.41;4488126;31;33789;-63
2023/04/21 02:29:03;;;;;;;6.57;1.73;;;;;;;14.71;43.14;99490.34;4488015;31;33990;-61
2023/04/21 02:31:30;;;;;;;0.93;0.88;;;;;;;14.32;44.20;99490.41;4491639;31;33673;-62
2023/04/21 02:34:00;;;;;;;1.15;0.93;;;;;;;14.38;44.50;99487.12;4492334;31;32383;-62
2023/04/21 02:36:28;;;;;;;2.60;1.37;;;;;;;14.67;43.62;99490.63;4495061;31;34848;-61
2023/04/21 02:38:56;;;;;;;3.10;1.23;;;;;;;14.49;44.02;99481.56;4489965;31;35208;-62
2023/04/21 02:41:24;;;;;;;2.10;1.27;;;;;;;14.64;43.81;99487.38;4490248;31;34722;-61
2023/04/21 02:43:52;;;;;;;2.17;1.77;;;;;;;13.63;46.92;99494.97;4498058;31;34904;-62
2023/04/21 02:46:21;;;;;;;2.37;1.30;;;;;;;13.74;46.25;99488.63;4495782;31;33920;-62
2023/04/21 02:48:49;;;;;;;3.17;1.70;;;;;;;14.08;45.02;99488.16;4482714;31;34215;-61
2023/04/21 02:51:16;;;;;;;1.27;1.00;;;;;;;14.45;44.38;99483.72;4494443;31;33764;-63
2023/04/21 02:53:44;;;;;;;1.35;1.05;;;;;;;14.06;44.08;99487.44;4488222;31;33397;-62
2023/04/21 02:56:12;;;;;;;2.08;1.17;;;;;;;14.29;44.31;99486.16;4497037;31;33637;-61
2023/04/21 02:58:39;;;;;;;5.55;1.48;;;;;;;14.59;43.48;99487.81;4496765;31;32613;-62
2023/04/21 03:01:07;;;;;;;2.70;0.75;;;;;;;14.19;44.16;99490.72;4493173;31;33308;-61
2023/04/21 03:03:35;;;;;;;1.75;0.95;;;;;;;14.36;43.71;99489.97;4496681;31;33310;-60
2023/04/21 03:06:04;;;;;;;3.97;1.95;;;;;;;14.14;43.81;99496.50;4485564;31;33961;-62
2023/04/21 03:08:31;;;;;;;3.03;1.58;;;;;;;14.49;42.68;99495.03;4489746;31;33872;-64
2023/04/21 03:10:59;;;;;;;1.08;0.98;;;;;;;14.17;43.55;99492.69;4497179;31;34157;-62
2023/04/21 03:13:27;;;;;;;2.75;1.27;;;;;;;14.15;43.89;99494.66;4495065;31;33694;-63
2023/04/21 03:15:55;;;;;;;1.90;1.10;;;;;;;13.92;44.36;99486.06;4493412;31;33561;-62
2023/04/21 03:18:23;;;;;;;2.30;1.30;;;;;;;14.29;42.60;99490.69;4495796;31;35183;-61
2023/04/21 03:20:50;;;;;;;3.08;1.95;;;;;;;14.40;42.78;99487.81;4496822;31;33771;-61
2023/04/21 03:23:18;;;;;;;3.50;2.22;;;;;;;14.34;41.79;99491.09;4492210;31;33153;-63
2023/04/21 03:25:45;;;;;;;18.35;2.62;;;;;;;14.83;41.02;99486.44;4490324;31;33677;-63
2023/04/21 03:28:13;;;;;;;5.43;2.10;;;;;;;14.70;42.55;99485.91;4488533;31;33957;-61
2023/04/21 03:30:40;;;;;;;1.02;0.98;;;;;;;14.65;42.42;99492.59;4497994;31;32573;-60
2023/04/21 03:33:08;;;;;;;1.95;1.20;;;;;;;14.82;41.60;99496.38;4495239;31;33276;-60
2023/04/21 03:35:35;;;;;;;3.30;1.95;;;;;;;14.36;42.39;99498.03;4485215;31;33700;-61
2023/04/21 03:38:03;;;;;;;6.20;2.53;;;;;;;14.19;42.64;99490.72;4496395;31;34750;-62
2023/04/21 03:40:31;;;;;;;0.90;0.62;;;;;;;14.17;42.80;99493.53;4496004;31;33824;-61
2023/04/21 03:42:58;;;;;;;4.37;1.95;;;;;;;14.21;42.73;99486.88;4495039;31;33356;-61
2023/04/21 03:45:26;;;;;;;1.60;1.15;;;;;;;13.98;43.90;99504.31;4486991;31;33771;-60
2023/04/21 03:47:54;;;;;;;3.95;1.87;;;;;;;14.01;43.24;99504.03;4489443;31;35715;-60
2023/04/21 03:50:22;;;;;;;2.78;1.67;;;;;;;13.78;44.17;99499.94;4495466;31;33580;-61
2023/04/21 03:52:49;;;;;;;6.45;2.75;;;;;;;13.62;44.07;99495.12;4489110;31;31998;-60
2023/04/21 03:55:17;;;;;;;9.32;2.33;;;;;;;14.09;42.99;99500.63;4487138;31;33889;-62
2023/04/21 03:57:45;;;;;;;1.80;0.88;;;;;;;14.20;42.30;99497.78;4497610;31;34950;-62
2023/04/21 04:00:12;;;;;;;7.60;3.95;;;;;;;13.97;43.43;99503.47;4492725;31;35157;-61
2023/04/21 04:02:40;;;;;;;3.25;2.05;;;;;;;13.67;44.29;99503.59;4491515;31;32549;-60
2023/04/21 04:05:08;;;;;;;4.43;1.73;;;;;;;14.20;42.35;99511.25;4493637;31;33538;-60
2023/04/21 04:07:36;;;;;;;0.62;0.60;;;;;;;14.10;42.44;99515.78;4494138;31;34091;-64
2023/04/21 04:10:03;;;;;;;5.97;1.87;;;;;;;14.49;41.71;99507.66;4495998;31;33979;-63
2023/04/21 04:12:31;;;;;;;4.50;1.75;;;;;;;14.58;41.43;99514.91;4496628;31;33412;-61
2023/04/21 04:14:58;;;;;;;5.10;2.17;;;;;;;14.50;42.05;99515.56;4491869;31;32327;-62
2023/04/21 04:17:26;;;;;;;1.15;1.08;;;;;;;14.66;41.67;99515.84;4494238;31;34927;-60
2023/04/21 04:19:54;;;;;;;1.52;1.42;;;;;;;14.78;41.20;99519.22;4495275;31;33718;-62
2023/04/21 04:22:21;;;;;;;7.43;1.40;;;;;;;14.65;41.47;99524.94;4487701;31;34474;-61
2023/04/21 04:24:48;;;;;;;0.88;0.88;;;;;;;14.40;41.76;99520.13;4483701;31;33279;-63
2023/04/21 04:27:16;;;;;;;3.67;1.95;;;;;;;14.62;41.60;99521.69;4498880;31;34878;-62
2023/04/21 04:29:45;;;;;;;1.23;1.08;;;;;;;14.78;41.57;99519.22;4485920;31;33952;-61
2023/04/21 04:32:14;;;;;;;1.48;1.25;;;;;;;15.25;40.58;99526.38;4484468;31;33081;-61
2023/04/21 04:34:41;;;;;;;4.68;1.37;;;;;;;15.41;40.43;99532.00;4481539;31;32655;-62
2023/04/21 04:37:09;;;;;;;2.78;1.85;;;;;;;15.37;40.36;99536.81;4482964;31;33899;-61
2023/04/21 04:39:37;;;;;;;9.25;3.50;;;;;;;15.65;39.86;99535.97;4493465;31;33829;-63
2023/04/21 04:42:08;;;;;;;2.80;1.55;;;;;;;15.98;38.94;99538.00;4493497;31;34612;-61
2023/04/21 04:44:35;;;;;;;3.03;1.40;;;;;;;15.88;39.46;99536.37;4495777;31;32897;-61
2023/04/21 04:47:03;;;;;;;2.08;1.55;;;;;;;15.86;39.17;99533.88;4487212;31;35283;-61
2023/04/21 04:49:31;;;;;;;4.35;1.52;;;;;;;15.83;38.99;99543.09;4481532;31;32783;-60
2023/04/21 04:51:58;;;;;;;1.65;0.95;;;;;;;16.20;38.63;99538.53;4494048;31;33511;-62
2023/04/21 04:54:27;;;;;;;2.75;0.60;;;;;;;16.29;38.43;99538.44;4495735;31;34574;-63
2023/04/21 04:56:56;;;;;;;5.12;1.48;;;;;;;16.43;38.01;99533.50;4495352;31;33758;-63
2023/04/21 04:59:24;;;;;;;5.28;1.73;;;;;;;16.20;38.39;99535.84;4497511;31;34826;-63
2023/04/21 05:01:51;;;;;;;4.22;1.35;;;;;;;16.50;38.97;99527.31;4490314;31;33356;-64
2023/04/21 05:04:19;;;;;;;7.72;2.65;;;;;;;16.78;38.78;99535.28;4486600;31;32206;-64
2023/04/21 05:06:47;;;;;;;11.98;2.75;;;;;;;16.92;38.71;99532.00;4482773;31;34903;-62
2023/04/21 05:09:15;;;;;;;5.80;2.58;;;;;;;16.79;38.63;99536.13;4491439;31;32742;-63
2023/04/21 05:11:43;;;;;;;2.80;1.52;;;;;;;17.07;36.97;99534.09;4491745;31;33143;-64
2023/04/21 05:14:10;;;;;;;5.45;1.92;;;;;;;17.39;36.54;99534.22;4484523;31;33978;-60
2023/04/21 05:16:38;;;;;;;3.58;1.87;;;;;;;17.70;36.35;99528.25;4481399;31;34269;-60
2023/04/21 05:19:05;;;;;;;3.03;1.58;;;;;;;16.88;37.27;99525.19;4480108;31;33615;-63
2023/04/21 05:21:33;;;;;;;3.53;1.80;;;;;;;17.37;35.27;99530.84;4489569;31;33822;-60
2023/04/21 05:24:00;;;;;;;2.65;1.17;;;;;;;17.42;34.75;99535.75;4491755;31;33912;-60
2023/04/21 05:26:28;;;;;;;9.73;1.83;;;;;;;18.97;32.12;99529.59;4484002;31;34172;-61
2023/04/21 05:28:57;;;;;;;3.50;1.35;;;;;;;20.57;30.77;99530.91;4483201;31;33556;-61
2023/04/21 05:31:24;;;;;;;3.25;1.80;;;;;;;21.26;29.24;99525.25;4490086;31;34116;-64
2023/04/21 05:33:52;;;;;;;3.55;1.58;;;;;;;20.99;30.25;99529.44;4489660;31;32978;-61
2023/04/21 05:36:19;;;;;;;8.43;2.30;;;;;;;20.37;31.07;99536.81;4490540;31;34834;-63
2023/04/21 05:38:47;;;;;;;6.37;2.05;;;;;;;19.74;31.61;99530.69;4496957;31;32652;-61
2023/04/21 05:41:15;;;;;;;3.45;1.83;;;;;;;20.62;31.73;99536.66;4492115;31;33584;-61
2023/04/21 05:43:42;;;;;;;4.35;2.35;;;;;;;21.50;29.13;99544.00;4484007;31;33675;-62
2023/04/21 05:46:10;;;;;;;4.60;1.60;;;;;;;22.46;26.92;99527.44;4489350;31;31985;-62
2023/04/21 05:48:39;;;;;;;6.32;2.20;;;;;;;21.53;27.48;99542.78;4496089;31;33801;-61
2023/04/21 05:51:10;;;;;;;8.63;2.80;;;;;;;20.85;28.76;99540.16;4484174;31;34562;-62
2023/04/21 05:53:39;;;;;;;5.97;2.95;;;;;;;20.62;28.85;99545.66;4494814;31;33619;-61
2023/04/21 05:56:09;;;;;;;6.90;2.00;;;;;;;20.36;29.12;99551.44;4490419;31;35386;-63
2023/04/21 05:58:37;;;;;;;5.37;3.12;;;;;;;20.45;29.39;99544.09;4491583;31;34900;-63
2023/04/21 06:01:05;;;;;;;4.22;1.92;;;;;;;19.45;30.14;99549.44;4490768;31;32842;-60
2023/04/21 06:03:33;;;;;;;4.15;1.87;;;;;;;19.14;31.15;99552.97;4489614;31;34006;-60
2023/04/21 06:06:02;;;;;;;12.40;2.37;;;;;;;18.18;31.59;99548.31;4490883;31;32739;-62
2023/04/21 06:08:30;;;;;;;4.50;2.42;;;;;;;18.35;31.64;99555.41;4495845;31;35122;-62
2023/04/21 06:10:57;;;;;;;7.12;2.42;;;;;;;18.08;32.54;99539.50;4496694;31;34042;-60
2023/04/21 06:13:26;;;;;;;11.70;1.95;;;;;;;17.65;33.20;99553.06;4495892;31;34011;-61
2023/04/21 06:15:54;;;;;;;9.10;2.37;;;;;;;17.19;33.95;99551.72;4492459;31;33997;-63
2023/04/21 06:18:23;;;;;;;3.80;1.55;;;;;;;16.97;34.39;99553.97;4493694;31;34150;-61
2023/04/21 06:20:51;;;;;;;3.37;1.25;;;;;;;17.47;34.18;99544.25;4493667;31;32289;-60
2023/04/21 06:23:19;;;;;;;2.83;1.62;;;;;;;17.16;34.22;99549.34;4492499;31;35041;-60
2023/04/21 06:26:03;;;;;;;4.68;4.22;;;;;;;16.62;35.01;99548.66;4487129;31;32737;-60
2023/04/21 06:28:31;;;;;;;1.98;1.27;;;;;;;16.24;35.61;99548.88;4483844;31;33178;-62
2023/04/21 06:30:59;;;;;;;2.45;1.15;;;;;;;16.45;35.40;99553.94;4496339;31;33040;-62
2023/04/21 06:33:28;;;;;;;2.92;1.62;;;;;;;16.10;35.83;99554.81;4489155;31;34832;-62
2023/04/21 06:35:56;;;;;;;4.87;1.67;;;;;;;16.34;35.52;99545.22;4488998;31;34367;-60
2023/04/21 06:38:23;;;;;;;3.42;1.70;;;;;;;16.34;35.91;99551.50;4489619;31;35331;-61
2023/04/21 06:40:51;;;;;;;9.30;2.83;;;;;;;16.16;36.53;99547.97;4499530;31;33482;-62
2023/04/21 06:43:19;;;;;;;2.85;1.45;;;;;;;16.49;36.54;99551.78;4490223;31;34786;-61
2023/04/21 06:45:47;;;;;;;3.45;2.05;;;;;;;16.59;35.72;99547.09;4495236;31;34477;-63
2023/04/21 06:48:14;;;;;;;4.47;2.22;;;;;;;16.46;36.40;99552.09;4494089;31;33879;-62
2023/04/21 06:50:43;;;;;;;8.45;3.87;;;;;;;16.87;35.76;99563.22;4495312;31;33034;-60
2023/04/21 06:53:11;;;;;;;2.85;1.15;;;;;;;16.16;35.92;99545.25;4496759;31;34923;-59
2023/04/21 06:55:38;;;;;;;10.50;1.58;;;;;;;16.25;36.57;99555.12;4497263;31;33910;-61
2023/04/21 06:58:06;;;;;;;9.40;1.70;;;;;;;16.05;36.51;99549.91;4497029;31;33998;-62
2023/04/21 07:00:33;;;;;;;2.00;1.10;;;;;;;16.04;36.13;99547.34;4493649;31;34151;-60
2023/04/21 07:03:01;;;;;;;11.07;1.92;;;;;;;15.98;36.61;99540.69;4497027;31;34722;-60
2023/04/21 07:05:28;;;;;;;1.65;1.17;;;;;;;15.63;37.30;99552.28;4489971;31;34447;-61
2023/04/21 07:07:58;;;;;;;3.03;1.37;;;;;;;16.50;36.34;99546.22;4489856;31;33391;-62
2023/04/21 07:10:26;;;;;;;5.97;1.48;;;;;;;16.87;35.41;99542.44;4497218;31;32251;-60
2023/04/21 07:12:54;;;;;;;3.72;1.20;;;;;;;16.61;35.35;99546.97;4492730;31;35053;-62
2023/04/21 07:15:22;;;;;;;1.95;1.12;;;;;;;16.35;35.31;99549.66;4493317;31;32964;-61
2023/04/21 07:17:50;;;;;;;2.55;0.90;;;;;;;16.28;35.79;99544.88;4487475;31;33972;-60
2023/04/21 07:20:17;;;;;;;6.85;1.77;;;;;;;15.95;36.86;99542.88;4490699;31;33481;-60
2023/04/21 07:22:45;;;;;;;2.17;1.27;;;;;;;16.00;36.27;99546.81;4494683;31;33764;-60
2023/04/21 07:25:13;;;;;;;2.58;0.95;;;;;;;16.36;35.91;99546.78;4494764;31;34002;-62
2023/04/21 07:27:40;;;;;;;2.30;1.42;;;;;;;16.37;35.80;99544.91;4487695;31;35175;-62
2023/04/21 07:30:08;;;;;;;4.93;2.30;;;;;;;16.30;36.08;99545.53;4498190;31;33385;-62
2023/04/21 07:32:37;;;;;;;5.80;2.00;;;;;;;16.57;35.77;99545.59;4494236;31;33067;-62
2023/04/21 07:35:05;;;;;;;7.35;1.45;;;;;;;16.66;35.40;99544.63;4491848;31;34051;-60
2023/04/21 07:37:33;;;;;;;2.08;1.55;;;;;;;16.52;35.53;99554.16;4491826;31;32506;-60
2023/04/21 07:40:01;;;;;;;3.90;1.17;;;;;;;17.07;35.23;99545.75;4499760;31;32516;-61
2023/04/21 07:42:28;;;;;;;9.40;2.83;;;;;;;16.85;35.08;99552.53;4493495;31;33550;-62
2023/04/21 07:44:56;;;;;;;1.65;1.00;;;;;;;16.45;35.80;99545.84;4491496;31;33652;-63
2023/04/21 07:47:23;;;;;;;5.53;1.52;;;;;;;16.56;35.91;99538.47;4498717;31;34884;-63
2023/04/21 07:49:51;;;;;;;3.75;1.87;;;;;;;16.82;35.71;99543.91;4486450;31;33456;-61
2023/04/21 07:52:19;;;;;;;4.45;1.55;;;;;;;16.62;35.57;99543.25;4498652;31;33762;-61
2023/04/21 07:54:46;;;;;;;1.92;1.23;;;;;;;16.39;35.93;99545.63;4498753;31;33824;-61
2023/04/21 07:57:14;;;;;;;24.95;3.85;;;;;;;16.38;36.28;99547.47;4501509;31;33655;-61
2023/04/21 07:59:42;;;;;;;1.12;0.75;;;;;;;17.16;35.13;99546.66;4495743;31;34315;-62
2023/04/21 08:02:09;;;;;;;5.47;2.83;;;;;;;17.63;34.14;99547.00;4486299;31;33565;-63
2023/04/21 08:04:37;;;;;;;2.65;1.20;;;;;;;17.52;34.26;99543.75;4490445;31;33796;-60
2023/04/21 08:07:05;;;;;;;6.20;2.33;;;;;;;17.52;34.08;99549.16;4487867;31;33900;-60
2023/04/21 08:09:32;;;;;;;3.42;1.67;;;;;;;17.61;34.49;99553.59;4487609;31;33524;-61
2023/04/21 08:12:01;;;;;;;3.55;2.17;;;;;;;17.79;33.73;99540.81;4498813;31;34784;-61
2023/04/21 08:14:28;;;;;;;21.98;1.95;;;;;;;17.99;33.82;99544.06;4497734;31;34808;-61
2023/04/21 08:16:56;;;;;;;7.97;1.45;;;;;;;17.66;34.19;99545.84;4490471;31;33984;-61
2023/04/21 08:19:24;;;;;;;7.15;2.08;;;;;;;18.04;33.66;99551.66;4499338;31;33392;-62
2023/04/21 08:21:52;;;;;;;27.85;2.70;;;;;;;18.51;32.37;99549.16;4500143;31;33694;-61
2023/04/21 08:24:19;;;;;;;6.30;2.20;;;;;;;18.54;32.64;99547.97;4488460;31;35297;-62
2023/04/21 08:26:47;;;;;;;5.82;1.52;;;;;;;18.74;31.86;99552.03;4494376;31;33855;-62
2023/04/21 08:29:15;;;;;;;4.47;2.75;;;;;;;18.22;33.21;99548.81;4489045;31;33116;-61
2023/04/21 08:31:42;;;;;;;7.00;2.25;;;;;;;18.08;32.85;99537.63;4494828;31;33523;-62
2023/04/21 08:34:10;;;;;;;5.60;1.95;;;;;;;19.04;32.45;99546.91;4496913;31;34064;-62
2023/04/21 08:36:38;;;;;;;9.43;3.08;;;;;;;19.08;32.32;99530.09;4489530;31;33880;-62
2023/04/21 08:39:05;;;;;;;8.80;3.42;;;;;;;19.18;32.10;99539.91;4497284;31;33235;-63
2023/04/21 08:41:33;;;;;;;8.93;2.55;;;;;;;19.30;31.87;99539.34;4485434;32;33813;-60
2023/04/21 08:44:01;;;;;;;3.65;1.08;;;;;;;18.72;31.73;99532.41;4487644;31;34829;-63
2023/04/21 08:46:29;;;;;;;9.30;3.17;;;;;;;19.15;31.52;99535.66;4486187;31;33587;-64
2023/04/21 08:48:57;;;;;;;14.35;2.80;;;;;;;19.54;30.92;99538.38;4493152;31;33442;-61
2023/04/21 08:51:27;;;;;;;6.43;1.95;;;;;;;18.99;30.95;99535.72;4499292;31;33997;-61
2023/04/21 08:53:54;;;;;;;15.00;2.30;;;;;;;19.45;31.21;99533.16;4488769;31;35017;-61
2023/04/21 08:56:26;;;;;;;4.90;2.08;;;;;;;18.88;31.43;99531.50;4499722;31;34069;-61
2023/04/21 08:58:53;;;;;;;5.10;1.83;;;;;;;19.05;31.11;99540.44;4485482;31;34530;-61
2023/04/21 09:01:21;;;;;;;3.60;1.67;;;;;;;19.50;29.96;99539.75;4489389;31;33643;-62
2023/04/21 09:03:48;;;;;;;4.30;1.70;;;;;;;19.81;30.49;99533.53;4492639;31;33879;-61
2023/04/21 09:06:16;;;;;;;8.70;2.03;;;;;;;19.85;29.45;99528.56;4493162;31;32103;-61
2023/04/21 09:08:54;;;;;;;4.37;2.03;;;;;;;20.01;29.99;99532.00;4493219;31;33939;-61
2023/04/21 09:11:22;;;;;;;3.75;2.08;;;;;;;18.95;31.53;99528.97;4491254;31;34094;-62
2023/04/21 09:13:50;;;;;;;6.82;2.37;;;;;;;19.51;29.79;99535.16;4497205;31;33903;-62
2023/04/21 09:16:19;;;;;;;3.72;1.85;;;;;;;19.75;30.09;99532.34;4493284;31;35392;-62
2023/04/21 09:18:49;;;;;;;3.92;1.50;;;;;;;19.34;30.61;99528.97;4494065;31;34542;-61
2023/04/21 09:21:17;;;;;;;4.70;1.83;;;;;;;19.32;30.32;99520.16;4489873;31;35139;-63
2023/04/21 09:23:45;;;;;;;6.03;2.78;;;;;;;19.73;29.65;99522.69;4493079;31;33780;-61
2023/04/21 09:26:14;;;;;;;16.50;2.70;;;;;;;19.74;29.05;99522.53;4488512;31;35023;-61
2023/04/21 09:28:43;;;;;;;7.55;2.65;;;;;;;19.68;29.52;99520.53;4490392;31;32440;-63
2023/04/21 09:31:27;;;;;;;4.30;2.40;;;;;;;20.27;29.13;99516.38;4491307;31;33427;-61
2023/04/21 09:33:56;;;;;;;3.65;1.95;;;;;;;20.47;28.70;99506.66;4484571;32;33706;-61
2023/04/21 09:36:29;;;;;;;6.40;2.22;;;;;;;20.28;29.02;99513.47;4496120;31;32714;-62
2023/04/21 09:39:02;;;;;;;4.75;2.58;;;;;;;20.54;28.34;99504.09;4499574;31;34663;-61
2023/04/21 09:41:32;;;;;;;8.20;2.53;;;;;;;20.36;28.24;99505.25;4494337;31;33743;-61
2023/04/21 09:44:00;;;;;;;4.53;2.87;;;;;;;20.40;28.69;99508.44;4496236;31;32889;-62
2023/04/21 09:46:30;;;;;;;8.95;3.53;;;;;;;20.85;28.49;99493.91;4484158;31;34149;-61
2023/04/21 09:49:00;;;;;;;7.60;2.83;;;;;;;20.36;28.96;99505.25;4482658;31;33554;-60
2023/04/21 09:51:30;;;;;;;6.20;2.80;;;;;;;20.52;28.56;99501.56;4496670;31;33672;-61
2023/04/21 09:54:19;;;;;;;6.95;2.75;;;;;;;21.25;28.93;99491.75;4488522;31;35631;-62
2023/04/21 09:57:00;;;;;;;6.75;2.33;;;;;;;21.93;26.62;99505.13;4497841;31;34953;-61
2023/04/21 09:59:32;;;;;;;8.57;2.92;;;;;;;21.63;26.36;99495.12;4496840;31;34271;-61
2023/04/21 10:02:00;;;;;;;7.55;2.97;;;;;;;21.52;25.93;99489.38;4483870;31;33799;-61
2023/04/21 10:04:30;;;;;;;4.87;2.20;;;;;;;21.16;26.69;99484.72;4493008;31;35201;-63
2023/04/21 10:07:02;;;;;;;8.65;2.83;;;;;;;21.98;26.23;99480.84;4492687;31;34689;-63
2023/04/21 10:09:38;;;;;;;6.40;3.12;;;;;;;22.03;26.05;99483.84;4494238;31;33311;-62
2023/04/21 10:12:06;;;;;;;6.65;3.28;;;;;;;21.40;26.44;99483.56;4483767;31;33995;-63
2023/04/21 10:14:36;;;;;;;4.85;2.30;;;;;;;21.16;27.02;99482.00;4489444;31;32857;-63
2023/04/21 10:17:05;;;;;;;3.70;2.15;;;;;;;21.54;27.48;99485.41;4493709;31;33709;-62
2023/04/21 10:19:38;;;;;;;3.80;2.17;;;;;;;21.09;27.67;99490.06;4491727;31;33445;-61
2023/04/21 10:22:08;;;;;;;6.70;2.92;;;;;;;21.74;27.03;99479.34;4494482;31;35111;-61
2023/04/21 10:24:39;;;;;;;4.93;2.90;;;;;;;22.29;26.75;99475.91;4496522;31;35246;-61
2023/04/21 10:27:11;;;;;;;7.78;3.55;;;;;;;22.00;27.42;99479.59;4487898;31;33909;-61
2023/04/21 10:29:38;;;;;;;8.50;2.30;;;;;;;22.05;26.58;99479.88;4482628;31;33459;-61
2023/04/21 10:32:41;;;;;;;5.37;2.72;;;;;;;21.69;26.61;99477.19;4482070;31;34652;-62
2023/04/21 10:35:13;;;;;;;5.30;2.83;;;;;;;21.94;26.42;99477.66;4489279;31;32359;-61
2023/04/21 10:37:41;;;;;;;6.90;3.22;;;;;;;21.53;27.32;99475.53;4488979;31;35538;-61
2023/04/21 10:40:34;;;;;;;4.65;2.25;;;;;;;22.07;27.10;99464.16;4482831;31;33448;-61
2023/04/21 10:43:45;;;;;;;4.95;2.37;;;;;;;21.96;25.91;99464.69;4485337;31;35057;-61
2023/04/21 10:46:33;;;;;;;5.97;2.60;;;;;;;21.24;26.79;99462.81;4490046;31;34415;-63
2023/04/21 10:49:08;;;;;;;8.80;3.40;;;;;;;22.30;26.36;99452.22;4485223;31;33397;-62
2023/04/21 10:52:04;;;;;;;5.68;2.97;;;;;;;21.75;26.36;99453.78;4483923;31;35356;-61
2023/04/21 10:54:48;;;;;;;6.35;3.20;;;;;;;21.74;26.91;99452.94;4490364;31;33770;-61
2023/04/21 10:57:18;;;;;;;4.40;2.45;;;;;;;22.77;26.15;99446.06;4486262;31;34113;-61
2023/04/21 10:59:47;;;;;;;6.65;3.67;;;;;;;22.58;25.59;99445.94;4484871;31;35262;-62
2023/04/21 11:02:16;;;;;;;9.90;3.78;;;;;;;22.30;26.08;99435.88;4490002;31;32083;-62
2023/04/21 11:04:46;;;;;;;7.18;3.22;;;;;;;22.25;25.47;99444.66;4487197;31;33800;-62
2023/04/21 11:07:19;;;;;;;5.60;3.90;;;;;;;22.56;25.30;99437.94;4484525;31;33994;-61
2023/04/21 11:09:49;;;;;;;6.75;3.47;;;;;;;22.65;24.91;99430.44;4483551;31;34473;-63
2023/04/21 11:12:17;;;;;;;8.40;3.83;;;;;;;22.13;25.56;99446.19;4489500;31;33145;-61
2023/04/21 11:14:48;;;;;;;10.88;3.40;;;;;;;22.14;26.28;99436.97;4494099;31;33399;-61
2023/04/21 11:17:17;;;;;;;4.20;2.85;;;;;;;22.21;26.04;99439.78;4488715;31;35178;-63
2023/04/21 11:19:50;;;;;;;12.82;3.87;;;;;;;21.82;26.10;99438.34;4500503;31;33673;-61
2023/04/21 11:22:21;;;;;;;;;;;;;;;22.09;25.81;99436.72;4495249;31;32070;-61
2023/04/21 11:24:52;;;;;;;4.72;2.85;;;;;;;22.10;26.05;99435.69;4489598;31;33996;-63
2023/04/21 11:27:21;;;;;;;7.85;3.08;;;;;;;22.31;25.96;99422.06;4492398;31;34902;-63
2023/04/21 11:29:49;;;;;;;3.40;2.12;;;;;;;22.45;25.60;99433.88;4496745;31;32898;-62
2023/04/21 11:32:17;;;;;;;5.62;2.90;;;;;;;22.55;26.23;99428.06;4496876;31;33732;-63
2023/04/21 11:34:45;;;;;;;5.50;3.08;;;;;;;22.50;25.89;99422.37;4488125;31;34646;-62
2023/04/21 11:37:25;;;;;;;5.47;3.20;;;;;;;21.43;27.19;99427.91;4491843;31;33657;-61
2023/04/21 11:40:00;;;;;;;16.73;3.80;;;;;;;21.40;26.87;99429.13;4491462;31;33756;-62
2023/04/21 11:42:28;;;;;;;7.72;3.62;;;;;;;22.03;26.24;99427.44;4491310;31;33108;-61